This is the latest recevied weather packets stored in our database for station/object KC9MWQ-13. If no packets are shown the sender has not sent any weather packets the latest 1 day(s).
| Time | Temp. | Humidity | Pressure | Rain* | Wind** | Luminosity | Snow |
|---|---|---|---|---|---|---|---|
| 1778082855 | 12.22° C | 64% | 1014.9 hPa | 0 mm | - | 252 W/m² | - |
| 1778080527 | 12.22° C | 64% | 1014.9 hPa | 0 mm | - | 370 W/m² | - |
| 1778080224 | 12.78° C | 62% | 1014.7 hPa | 0 mm | - | 319 W/m² | - |
| 1778079314 | 12.22° C | 64% | 1014.5 hPa | 0 mm | - | 448 W/m² | - |
| 1778078103 | 11.67° C | 67% | 1014.3 hPa | 0 mm | - | 710 W/m² | - |
| 1778075379 | 11.11° C | 75% | 1014 hPa | 0 mm | - | 633 W/m² | - |
| 1778074166 | 10.56° C | 77% | 1013.8 hPa | 0 mm | - | 424 W/m² | - |
| 1778073863 | 10.56° C | 77% | 1013.7 hPa | 0 mm | - | 397 W/m² | - |
| 1778073257 | 10° C | 82% | 1013.7 hPa | 0 mm | - | 366 W/m² | - |
| 1778072349 | 9.44° C | 85% | 1013.6 hPa | 0 mm | - | 302 W/m² | - |
| 1778072047 | 9.44° C | 87% | 1013.9 hPa | 0 mm | - | 277 W/m² | - |
| 1778070231 | 8.89° C | 96% | 1013.1 hPa | 0 mm | - | 199 W/m² | - |
| 1778069626 | 8.33° C | 99% | 1012.9 hPa | 0 mm | - | 162 W/m² | - |
| 1778069323 | 8.89° C | 99% | 1013.2 hPa | 0 mm | - | 114 W/m² | - |
| 1778068114 | 8.33° C | 99% | 1012.7 hPa | 0 mm | - | 69 W/m² | - |
| 1778067510 | 7.22° C | 99% | 1012.7 hPa | 0 mm | - | 59 W/m² | - |
| 1778067207 | 7.22° C | 99% | 1012.6 hPa | 0 mm | - | 53 W/m² | - |
| 1778066298 | 6.67° C | 99% | 1012.3 hPa | 0 mm | - | 27 W/m² | - |
| 1778065996 | 6.67° C | 99% | 1011.9 hPa | 0 mm | - | 18 W/m² | - |
| 1778065390 | 6.67° C | 99% | 1012.1 hPa | 0 mm | - | 16 W/m² | - |
| 1778064481 | 6.67° C | 99% | 1011.9 hPa | 0 mm | - | 3 W/m² | - |
| 1778064179 | 6.67° C | 99% | 1011.6 hPa | 0 mm | - | 2 W/m² | - |
| 1778063876 | 6.67° C | 99% | 1011.7 hPa | 0 mm | - | 0 W/m² | - |
| 1778063271 | 6.67° C | 99% | 1011.3 hPa | 0 mm | - | 0 W/m² | - |
| 1778062060 | 6.67° C | 99% | 1011.3 hPa | 0 mm | - | 0 W/m² | - |
* Rain latest hour (hover to see other rain measurements)
** Current wind speed in m/s (hover to see current wind gust speed)